Westford, VT (05494)

2:38 PM EDT on June 28, 2016 (GMT -0400)
Coyote Ridge | | Change Station

Elev 472 ft 44.63 °N, 73.01 °W | Updated 0 second ago

Partly Cloudy
Partly Cloudy
81.1 °F
Feels Like 83 °F
N
9.2
Wind Variable Wind from SW
Gusts 12.3 mph

Today
High -- | Low -- °F
--% Chance of Precip.
Yesterday
High -- | Low -- °F
Precip. -- in
Pressure 29.83 in
Visibility 10.0 miles
Clouds Scattered Clouds 4000 ft
Scattered Clouds 12000 ft
Heat Index 83 °F
Dew Point 66 °F
Humidity 59%
Rainfall 0.00 in
Snow Depth Not available.
5:09 AM 8:41 PM
Last Quarter, 38% visible
METAR KBTV 281754Z 20017G23KT 10SM SCT040CB SCT120 28/18 A2984 RMK AO2 PK WND 19027/1742 SLP101 CB VC W-NE MOV SE CB DSNT E & W T02830178 10283 20228 58023
Pressure 29.83 in
Visibility 10.0 miles
Clouds Scattered Clouds 4000 ft
Scattered Clouds 12000 ft
Heat Index 83 °F
Dew Point 66 °F
Humidity 59%
Rainfall 0.00 in
Snow Depth Not available.
5:09 AM 8:41 PM
Last Quarter, 38% visible
METAR KBTV 281754Z 20017G23KT 10SM SCT040CB SCT120 28/18 A2984 RMK AO2 PK WND 19027/1742 SLP101 CB VC W-NE MOV SE CB DSNT E & W T02830178 10283 20228 58023

10-Day Weather Forecast

Almanac

Astronomy

Jun. 28, 2016 Rise Set
Actual Time
Civil Twilight
Nautical Twilight
Astronomical Twilight
Moon
Length of Visible Light
Length of Day
Tomorrow will be .
, % of the Moon is Illuminated

Today's Extremes

State Highs State Lows

Community

WunderPhotos

Upload Photos

1,921,299 photos uploaded!

WunderBlog® & News

Nearby

Air Quality

  Air Quality AQ Index Pollutant
Not available.

Snow Depth

Station Depth Elevation

Earthquake Activity

City Distance Mag. Time & Date
Minimum magnitude displayed is 2.5.

Coastal Water Temperatures

Place Temperature

Stations

Nearby Weather Stations

Station Location Temp. Windchill Dew Point Humidity Wind Precip. Elev Updated Type
                   

Watches & Warnings

There are currently no watches in effect.